sensor_id;sensor_type;location;lat;lon;timestamp;pressure;altitude;pressure_sealevel;temperature;humidity
11682;BME280;5897;42.640;23.310;2023-02-23T00:01:16;93737.94;;;7.95;67.82
11682;BME280;5897;42.640;23.310;2023-02-23T00:03:45;93741.16;;;8.06;67.47
11682;BME280;5897;42.640;23.310;2023-02-23T00:06:13;93741.09;;;7.90;68.21
11682;BME280;5897;42.640;23.310;2023-02-23T00:08:41;93740.13;;;8.00;68.09
11682;BME280;5897;42.640;23.310;2023-02-23T00:11:10;93732.69;;;7.69;68.92
11682;BME280;5897;42.640;23.310;2023-02-23T00:13:37;93736.00;;;7.53;70.49
11682;BME280;5897;42.640;23.310;2023-02-23T00:16:05;93749.03;;;7.55;71.11
11682;BME280;5897;42.640;23.310;2023-02-23T00:18:33;93723.16;;;7.41;71.16
11682;BME280;5897;42.640;23.310;2023-02-23T00:21:12;93742.63;;;7.49;71.60
11682;BME280;5897;42.640;23.310;2023-02-23T00:23:47;93745.34;;;7.68;70.61
11682;BME280;5897;42.640;23.310;2023-02-23T00:26:14;93743.97;;;7.60;71.46
11682;BME280;5897;42.640;23.310;2023-02-23T00:28:42;93744.31;;;7.62;71.26
11682;BME280;5897;42.640;23.310;2023-02-23T00:31:09;93752.38;;;7.62;71.40
11682;BME280;5897;42.640;23.310;2023-02-23T00:33:37;93748.75;;;7.72;71.04
11682;BME280;5897;42.640;23.310;2023-02-23T00:36:06;93748.03;;;7.68;71.11
11682;BME280;5897;42.640;23.310;2023-02-23T00:38:35;93726.38;;;7.56;71.29
11682;BME280;5897;42.640;23.310;2023-02-23T00:41:05;93751.25;;;7.60;71.71
11682;BME280;5897;42.640;23.310;2023-02-23T00:43:35;93755.13;;;7.59;71.71
11682;BME280;5897;42.640;23.310;2023-02-23T00:46:03;93743.50;;;7.65;71.65
11682;BME280;5897;42.640;23.310;2023-02-23T00:48:33;93746.22;;;7.62;71.06
11682;BME280;5897;42.640;23.310;2023-02-23T00:51:02;93743.78;;;7.48;72.01
11682;BME280;5897;42.640;23.310;2023-02-23T00:53:29;93732.53;;;7.33;72.77
11682;BME280;5897;42.640;23.310;2023-02-23T00:55:57;93738.69;;;7.34;72.92
11682;BME280;5897;42.640;23.310;2023-02-23T00:58:25;93734.50;;;7.29;73.44
11682;BME280;5897;42.640;23.310;2023-02-23T01:00:52;93724.75;;;7.16;73.56
11682;BME280;5897;42.640;23.310;2023-02-23T01:03:19;93729.44;;;7.35;72.97
11682;BME280;5897;42.640;23.310;2023-02-23T01:05:47;93734.38;;;7.36;72.90
11682;BME280;5897;42.640;23.310;2023-02-23T01:08:15;93731.03;;;7.32;73.40
11682;BME280;5897;42.640;23.310;2023-02-23T01:10:43;93737.50;;;7.35;73.69
11682;BME280;5897;42.640;23.310;2023-02-23T01:13:18;93740.63;;;7.53;72.70
11682;BME280;5897;42.640;23.310;2023-02-23T01:15:45;93744.66;;;7.64;71.77
11682;BME280;5897;42.640;23.310;2023-02-23T01:18:14;93741.63;;;7.62;71.52
11682;BME280;5897;42.640;23.310;2023-02-23T01:20:41;93735.09;;;7.40;72.84
11682;BME280;5897;42.640;23.310;2023-02-23T01:23:09;93738.16;;;7.42;72.88
11682;BME280;5897;42.640;23.310;2023-02-23T01:25:37;93730.19;;;7.12;73.93
11682;BME280;5897;42.640;23.310;2023-02-23T01:28:04;93717.22;;;7.07;74.53
11682;BME280;5897;42.640;23.310;2023-02-23T01:30:32;93741.19;;;7.21;74.75
11682;BME280;5897;42.640;23.310;2023-02-23T01:32:59;93739.09;;;7.32;73.87
11682;BME280;5897;42.640;23.310;2023-02-23T01:35:27;93739.22;;;7.25;74.08
11682;BME280;5897;42.640;23.310;2023-02-23T01:37:54;93733.59;;;7.16;74.01
11682;BME280;5897;42.640;23.310;2023-02-23T01:40:23;93736.28;;;7.16;73.96
11682;BME280;5897;42.640;23.310;2023-02-23T01:42:55;93737.56;;;7.08;74.90
11682;BME280;5897;42.640;23.310;2023-02-23T01:45:29;93721.59;;;6.98;75.39
11682;BME280;5897;42.640;23.310;2023-02-23T01:48:01;93730.66;;;7.07;75.46
11682;BME280;5897;42.640;23.310;2023-02-23T01:50:37;93729.00;;;7.13;75.26
11682;BME280;5897;42.640;23.310;2023-02-23T01:53:05;93730.56;;;7.14;74.72
11682;BME280;5897;42.640;23.310;2023-02-23T01:55:32;93728.81;;;7.04;75.71
11682;BME280;5897;42.640;23.310;2023-02-23T01:58:08;93722.19;;;7.09;75.95
11682;BME280;5897;42.640;23.310;2023-02-23T02:00:41;93715.78;;;7.26;75.17
11682;BME280;5897;42.640;23.310;2023-02-23T02:03:14;93724.00;;;7.38;74.59
11682;BME280;5897;42.640;23.310;2023-02-23T02:05:43;93726.22;;;7.43;73.86
11682;BME280;5897;42.640;23.310;2023-02-23T02:08:11;93717.84;;;7.38;74.10
11682;BME280;5897;42.640;23.310;2023-02-23T02:10:38;93725.81;;;7.22;74.96
11682;BME280;5897;42.640;23.310;2023-02-23T02:13:06;93715.13;;;7.18;74.64
11682;BME280;5897;42.640;23.310;2023-02-23T02:15:43;93710.59;;;7.15;74.82
11682;BME280;5897;42.640;23.310;2023-02-23T02:18:23;93715.25;;;7.11;75.32
11682;BME280;5897;42.640;23.310;2023-02-23T02:27:36;93717.44;;;6.70;77.30
11682;BME280;5897;42.640;23.310;2023-02-23T02:30:25;93721.91;;;6.80;77.26
11682;BME280;5897;42.640;23.310;2023-02-23T02:36:19;93720.66;;;6.85;77.24
11682;BME280;5897;42.640;23.310;2023-02-23T02:38:55;93728.44;;;7.02;76.86
11682;BME280;5897;42.640;23.310;2023-02-23T02:41:34;93725.53;;;7.16;76.07
11682;BME280;5897;42.640;23.310;2023-02-23T02:44:12;93730.38;;;7.25;75.19
11682;BME280;5897;42.640;23.310;2023-02-23T02:46:45;93722.72;;;7.23;75.16
11682;BME280;5897;42.640;23.310;2023-02-23T02:49:20;93724.53;;;7.30;74.92
11682;BME280;5897;42.640;23.310;2023-02-23T02:51:55;93718.00;;;7.31;74.48
11682;BME280;5897;42.640;23.310;2023-02-23T02:54:29;93720.44;;;7.22;74.86
11682;BME280;5897;42.640;23.310;2023-02-23T02:56:59;93721.78;;;7.33;74.68
11682;BME280;5897;42.640;23.310;2023-02-23T02:59:28;93718.69;;;7.35;74.13
11682;BME280;5897;42.640;23.310;2023-02-23T03:02:15;93724.13;;;7.31;74.43
11682;BME280;5897;42.640;23.310;2023-02-23T03:04:59;93713.72;;;7.33;74.21
11682;BME280;5897;42.640;23.310;2023-02-23T03:07:49;93710.25;;;7.33;73.87
11682;BME280;5897;42.640;23.310;2023-02-23T03:10:42;93714.72;;;7.20;74.37
11682;BME280;5897;42.640;23.310;2023-02-23T03:13:39;93715.13;;;7.18;74.48
11682;BME280;5897;42.640;23.310;2023-02-23T03:16:30;93719.28;;;7.23;74.77
11682;BME280;5897;42.640;23.310;2023-02-23T03:19:22;93718.44;;;7.26;74.49
11682;BME280;5897;42.640;23.310;2023-02-23T03:22:16;93717.34;;;7.23;74.46
11682;BME280;5897;42.640;23.310;2023-02-23T03:25:05;93726.75;;;7.12;74.85
11682;BME280;5897;42.640;23.310;2023-02-23T03:27:58;93728.50;;;6.99;75.62
11682;BME280;5897;42.640;23.310;2023-02-23T03:30:54;93726.25;;;6.94;76.04
11682;BME280;5897;42.640;23.310;2023-02-23T03:33:48;93725.41;;;7.00;75.74
11682;BME280;5897;42.640;23.310;2023-02-23T03:36:38;93734.03;;;7.11;75.06
11682;BME280;5897;42.640;23.310;2023-02-23T03:39:31;93734.63;;;6.99;75.40
11682;BME280;5897;42.640;23.310;2023-02-23T03:42:20;93736.25;;;6.93;75.95
11682;BME280;5897;42.640;23.310;2023-02-23T03:45:12;93743.84;;;6.98;76.10
11682;BME280;5897;42.640;23.310;2023-02-23T03:48:02;93733.47;;;7.00;76.07
11682;BME280;5897;42.640;23.310;2023-02-23T03:50:51;93744.97;;;7.01;75.82
11682;BME280;5897;42.640;23.310;2023-02-23T03:53:40;93751.16;;;6.98;75.95
11682;BME280;5897;42.640;23.310;2023-02-23T03:56:26;93744.66;;;6.95;76.29
11682;BME280;5897;42.640;23.310;2023-02-23T03:59:14;93745.94;;;6.87;76.81
11682;BME280;5897;42.640;23.310;2023-02-23T04:02:03;93752.47;;;6.86;77.60
11682;BME280;5897;42.640;23.310;2023-02-23T04:04:50;93749.81;;;6.86;77.43
11682;BME280;5897;42.640;23.310;2023-02-23T04:07:37;93755.97;;;6.83;77.49
11682;BME280;5897;42.640;23.310;2023-02-23T04:10:24;93752.88;;;6.85;77.78
11682;BME280;5897;42.640;23.310;2023-02-23T04:13:13;93755.97;;;6.83;77.92
11682;BME280;5897;42.640;23.310;2023-02-23T04:15:49;93748.38;;;6.78;78.02
11682;BME280;5897;42.640;23.310;2023-02-23T04:18:21;93748.47;;;6.71;78.88
11682;BME280;5897;42.640;23.310;2023-02-23T04:20:49;93738.66;;;6.61;78.97
11682;BME280;5897;42.640;23.310;2023-02-23T04:23:16;93745.03;;;6.71;78.70
11682;BME280;5897;42.640;23.310;2023-02-23T04:25:43;93734.56;;;6.53;78.32
11682;BME280;5897;42.640;23.310;2023-02-23T04:28:10;93751.38;;;6.57;78.24
11682;BME280;5897;42.640;23.310;2023-02-23T04:30:37;93743.78;;;6.52;79.17
11682;BME280;5897;42.640;23.310;2023-02-23T04:33:03;93746.41;;;6.56;79.15
11682;BME280;5897;42.640;23.310;2023-02-23T04:35:32;93746.03;;;6.54;78.89
11682;BME280;5897;42.640;23.310;2023-02-23T04:37:58;93750.75;;;6.46;79.09
11682;BME280;5897;42.640;23.310;2023-02-23T04:40:26;93746.09;;;6.50;79.10
11682;BME280;5897;42.640;23.310;2023-02-23T04:42:53;93740.19;;;6.32;79.71
11682;BME280;5897;42.640;23.310;2023-02-23T04:45:23;93747.81;;;6.37;79.57
11682;BME280;5897;42.640;23.310;2023-02-23T04:47:50;93752.00;;;6.38;79.52
11682;BME280;5897;42.640;23.310;2023-02-23T04:50:18;93734.59;;;6.23;79.86
11682;BME280;5897;42.640;23.310;2023-02-23T04:52:47;93749.31;;;6.38;79.17
11682;BME280;5897;42.640;23.310;2023-02-23T04:55:17;93753.84;;;6.45;78.72
11682;BME280;5897;42.640;23.310;2023-02-23T04:57:44;93758.06;;;6.16;79.90
11682;BME280;5897;42.640;23.310;2023-02-23T05:00:12;93743.06;;;6.18;80.11
11682;BME280;5897;42.640;23.310;2023-02-23T05:02:39;93744.00;;;6.05;81.37
11682;BME280;5897;42.640;23.310;2023-02-23T05:05:06;93752.25;;;6.21;81.25
11682;BME280;5897;42.640;23.310;2023-02-23T05:07:33;93744.25;;;6.17;81.42
11682;BME280;5897;42.640;23.310;2023-02-23T05:10:03;93743.38;;;6.24;81.63
11682;BME280;5897;42.640;23.310;2023-02-23T05:12:30;93755.81;;;6.41;80.37
11682;BME280;5897;42.640;23.310;2023-02-23T05:14:57;93752.00;;;6.38;80.19
11682;BME280;5897;42.640;23.310;2023-02-23T05:17:24;93758.69;;;6.27;80.53
11682;BME280;5897;42.640;23.310;2023-02-23T05:19:51;93759.03;;;6.29;80.61
11682;BME280;5897;42.640;23.310;2023-02-23T05:22:17;93759.34;;;6.34;80.46
11682;BME280;5897;42.640;23.310;2023-02-23T05:24:44;93760.91;;;6.32;80.48
11682;BME280;5897;42.640;23.310;2023-02-23T05:27:13;93761.56;;;6.39;80.01
11682;BME280;5897;42.640;23.310;2023-02-23T05:29:42;93766.94;;;6.39;80.35
11682;BME280;5897;42.640;23.310;2023-02-23T05:32:09;93765.41;;;6.38;80.36
11682;BME280;5897;42.640;23.310;2023-02-23T05:34:36;93773.47;;;6.38;80.04
11682;BME280;5897;42.640;23.310;2023-02-23T05:37:03;93759.75;;;6.33;79.61
11682;BME280;5897;42.640;23.310;2023-02-23T05:39:30;93776.03;;;6.49;79.25
11682;BME280;5897;42.640;23.310;2023-02-23T05:41:57;93773.38;;;6.45;79.38
11682;BME280;5897;42.640;23.310;2023-02-23T05:44:25;93785.25;;;6.44;80.07
11682;BME280;5897;42.640;23.310;2023-02-23T05:46:52;93785.63;;;6.46;80.12
11682;BME280;5897;42.640;23.310;2023-02-23T05:49:19;93779.44;;;6.49;79.93
11682;BME280;5897;42.640;23.310;2023-02-23T05:51:45;93790.91;;;6.53;80.20
11682;BME280;5897;42.640;23.310;2023-02-23T05:54:12;93789.75;;;6.54;80.11
11682;BME280;5897;42.640;23.310;2023-02-23T05:56:39;93794.81;;;6.49;80.01
11682;BME280;5897;42.640;23.310;2023-02-23T05:59:06;93796.00;;;6.44;80.27
11682;BME280;5897;42.640;23.310;2023-02-23T06:01:34;93797.06;;;6.50;80.39
11682;BME280;5897;42.640;23.310;2023-02-23T06:04:01;93803.50;;;6.56;80.18
11682;BME280;5897;42.640;23.310;2023-02-23T06:06:28;93802.63;;;6.66;80.11
11682;BME280;5897;42.640;23.310;2023-02-23T06:08:55;93801.00;;;6.72;80.32
11682;BME280;5897;42.640;23.310;2023-02-23T06:11:22;93813.88;;;6.84;79.85
11682;BME280;5897;42.640;23.310;2023-02-23T06:13:49;93794.56;;;6.93;79.84
11682;BME280;5897;42.640;23.310;2023-02-23T06:16:16;93807.28;;;7.15;81.26
11682;BME280;5897;42.640;23.310;2023-02-23T06:18:44;93806.19;;;7.36;80.80
11682;BME280;5897;42.640;23.310;2023-02-23T06:21:11;93810.19;;;7.51;79.31
11682;BME280;5897;42.640;23.310;2023-02-23T06:23:38;93809.88;;;7.68;78.26
11682;BME280;5897;42.640;23.310;2023-02-23T06:26:05;93819.63;;;7.82;77.02
11682;BME280;5897;42.640;23.310;2023-02-23T06:28:33;93818.22;;;7.97;75.62
11682;BME280;5897;42.640;23.310;2023-02-23T06:31:00;93827.25;;;8.06;74.87
11682;BME280;5897;42.640;23.310;2023-02-23T06:33:26;93822.00;;;8.19;74.56
11682;BME280;5897;42.640;23.310;2023-02-23T06:35:55;93821.84;;;8.29;73.89
11682;BME280;5897;42.640;23.310;2023-02-23T06:38:21;93821.22;;;8.41;73.36
11682;BME280;5897;42.640;23.310;2023-02-23T06:40:48;93829.00;;;8.55;73.37
11682;BME280;5897;42.640;23.310;2023-02-23T06:43:15;93824.00;;;8.57;73.01
11682;BME280;5897;42.640;23.310;2023-02-23T06:45:42;93833.66;;;8.74;72.84
11682;BME280;5897;42.640;23.310;2023-02-23T06:48:08;93827.69;;;8.83;72.71
11682;BME280;5897;42.640;23.310;2023-02-23T06:50:35;93826.28;;;8.94;72.53
11682;BME280;5897;42.640;23.310;2023-02-23T06:53:03;93820.09;;;9.13;72.54
11682;BME280;5897;42.640;23.310;2023-02-23T06:55:30;93822.47;;;9.27;71.35
11682;BME280;5897;42.640;23.310;2023-02-23T06:57:57;93829.47;;;9.41;70.70
11682;BME280;5897;42.640;23.310;2023-02-23T07:00:24;93826.34;;;9.58;70.13
11682;BME280;5897;42.640;23.310;2023-02-23T07:02:51;93821.81;;;9.71;69.81
11682;BME280;5897;42.640;23.310;2023-02-23T07:05:18;93830.72;;;9.84;69.29
11682;BME280;5897;42.640;23.310;2023-02-23T07:07:45;93828.72;;;10.04;68.69
11682;BME280;5897;42.640;23.310;2023-02-23T07:10:13;93828.66;;;10.20;66.96
11682;BME280;5897;42.640;23.310;2023-02-23T07:12:40;93829.63;;;10.14;66.18
11682;BME280;5897;42.640;23.310;2023-02-23T07:15:08;93827.25;;;10.16;65.76
11682;BME280;5897;42.640;23.310;2023-02-23T07:17:35;93839.75;;;10.38;64.70
11682;BME280;5897;42.640;23.310;2023-02-23T07:20:03;93839.66;;;10.42;65.11
11682;BME280;5897;42.640;23.310;2023-02-23T07:22:30;93839.38;;;10.52;63.61
11682;BME280;5897;42.640;23.310;2023-02-23T07:24:58;93836.28;;;10.66;62.22
11682;BME280;5897;42.640;23.310;2023-02-23T07:27:26;93837.91;;;10.76;61.51
11682;BME280;5897;42.640;23.310;2023-02-23T07:29:53;93821.41;;;10.87;61.05
11682;BME280;5897;42.640;23.310;2023-02-23T07:32:20;93835.06;;;11.08;59.98
11682;BME280;5897;42.640;23.310;2023-02-23T07:34:47;93837.56;;;11.15;58.57
11682;BME280;5897;42.640;23.310;2023-02-23T07:37:14;93826.66;;;11.31;58.10
11682;BME280;5897;42.640;23.310;2023-02-23T07:39:41;93824.59;;;11.35;57.99
11682;BME280;5897;42.640;23.310;2023-02-23T07:42:08;93825.66;;;11.50;59.94
11682;BME280;5897;42.640;23.310;2023-02-23T07:44:37;93824.59;;;11.60;58.44
11682;BME280;5897;42.640;23.310;2023-02-23T07:47:04;93820.16;;;11.66;56.31
11682;BME280;5897;42.640;23.310;2023-02-23T07:49:31;93821.28;;;11.90;56.55
11682;BME280;5897;42.640;23.310;2023-02-23T07:51:58;93813.34;;;12.08;57.64
11682;BME280;5897;42.640;23.310;2023-02-23T07:54:27;93819.63;;;12.18;55.33
11682;BME280;5897;42.640;23.310;2023-02-23T07:56:54;93812.56;;;12.20;56.23
11682;BME280;5897;42.640;23.310;2023-02-23T07:59:21;93814.13;;;12.30;54.39
11682;BME280;5897;42.640;23.310;2023-02-23T08:01:49;93818.81;;;12.51;53.26
11682;BME280;5897;42.640;23.310;2023-02-23T08:04:16;93809.50;;;12.52;52.22
11682;BME280;5897;42.640;23.310;2023-02-23T08:06:43;93818.38;;;12.74;52.68
11682;BME280;5897;42.640;23.310;2023-02-23T08:09:11;93826.19;;;12.93;51.55
11682;BME280;5897;42.640;23.310;2023-02-23T08:11:37;93823.75;;;13.08;51.09
11682;BME280;5897;42.640;23.310;2023-02-23T08:14:04;93820.59;;;13.09;50.67
11682;BME280;5897;42.640;23.310;2023-02-23T08:16:32;93813.03;;;13.35;50.35
11682;BME280;5897;42.640;23.310;2023-02-23T08:19:01;93818.19;;;13.42;50.20
11682;BME280;5897;42.640;23.310;2023-02-23T08:21:30;93805.88;;;13.59;49.54
11682;BME280;5897;42.640;23.310;2023-02-23T08:23:57;93812.19;;;13.56;49.32
11682;BME280;5897;42.640;23.310;2023-02-23T08:26:24;93813.78;;;13.75;48.72
11682;BME280;5897;42.640;23.310;2023-02-23T08:28:51;93821.94;;;13.84;48.13
11682;BME280;5897;42.640;23.310;2023-02-23T08:31:17;93817.88;;;13.97;48.42
11682;BME280;5897;42.640;23.310;2023-02-23T08:33:47;93822.59;;;14.15;47.59
11682;BME280;5897;42.640;23.310;2023-02-23T08:36:17;93809.22;;;14.29;46.89
11682;BME280;5897;42.640;23.310;2023-02-23T08:38:45;93820.69;;;14.33;47.80
11682;BME280;5897;42.640;23.310;2023-02-23T08:41:11;93817.50;;;14.62;46.10
11682;BME280;5897;42.640;23.310;2023-02-23T08:43:38;93823.41;;;14.51;46.68
11682;BME280;5897;42.640;23.310;2023-02-23T08:46:06;93821.28;;;14.64;45.47
11682;BME280;5897;42.640;23.310;2023-02-23T08:48:33;93815.22;;;14.78;44.58
11682;BME280;5897;42.640;23.310;2023-02-23T08:51:00;93820.84;;;14.66;45.74
11682;BME280;5897;42.640;23.310;2023-02-23T08:53:29;93825.34;;;14.69;45.66
11682;BME280;5897;42.640;23.310;2023-02-23T08:55:57;93813.13;;;14.73;45.34
11682;BME280;5897;42.640;23.310;2023-02-23T08:58:24;93814.28;;;14.99;44.71
11682;BME280;5897;42.640;23.310;2023-02-23T09:00:51;93819.50;;;15.30;47.02
11682;BME280;5897;42.640;23.310;2023-02-23T09:03:18;93813.94;;;15.66;46.24
11682;BME280;5897;42.640;23.310;2023-02-23T09:05:45;93806.22;;;15.73;43.00
11682;BME280;5897;42.640;23.310;2023-02-23T09:08:13;93809.94;;;15.85;41.99
11682;BME280;5897;42.640;23.310;2023-02-23T09:10:42;93809.03;;;16.11;41.95
11682;BME280;5897;42.640;23.310;2023-02-23T09:13:09;93808.28;;;16.34;41.38
11682;BME280;5897;42.640;23.310;2023-02-23T09:15:36;93808.06;;;16.47;40.46
11682;BME280;5897;42.640;23.310;2023-02-23T09:18:04;93807.22;;;16.32;41.17
11682;BME280;5897;42.640;23.310;2023-02-23T09:20:32;93805.38;;;16.61;40.46
11682;BME280;5897;42.640;23.310;2023-02-23T09:22:59;93807.28;;;16.84;39.67
11682;BME280;5897;42.640;23.310;2023-02-23T09:25:26;93799.78;;;17.08;39.91
11682;BME280;5897;42.640;23.310;2023-02-23T09:27:55;93807.25;;;16.55;39.73
11682;BME280;5897;42.640;23.310;2023-02-23T09:30:25;93801.47;;;17.06;39.17
11682;BME280;5897;42.640;23.310;2023-02-23T09:32:53;93797.88;;;17.00;38.85
11682;BME280;5897;42.640;23.310;2023-02-23T09:35:23;93803.34;;;17.29;38.38
11682;BME280;5897;42.640;23.310;2023-02-23T09:37:51;93808.06;;;17.43;38.01
11682;BME280;5897;42.640;23.310;2023-02-23T09:40:22;93807.31;;;17.57;37.56
11682;BME280;5897;42.640;23.310;2023-02-23T09:42:58;93812.91;;;17.82;37.76
11682;BME280;5897;42.640;23.310;2023-02-23T09:45:34;93802.16;;;17.93;36.96
11682;BME280;5897;42.640;23.310;2023-02-23T09:48:15;93804.47;;;18.35;36.39
11682;BME280;5897;42.640;23.310;2023-02-23T09:50:46;93800.00;;;18.57;35.51
11682;BME280;5897;42.640;23.310;2023-02-23T09:53:27;93810.16;;;18.71;35.28
11682;BME280;5897;42.640;23.310;2023-02-23T09:55:57;93800.72;;;18.98;34.04
11682;BME280;5897;42.640;23.310;2023-02-23T09:58:27;93798.56;;;18.82;34.63
11682;BME280;5897;42.640;23.310;2023-02-23T10:01:19;93800.94;;;18.94;34.40
11682;BME280;5897;42.640;23.310;2023-02-23T10:03:51;93802.22;;;18.99;34.59
11682;BME280;5897;42.640;23.310;2023-02-23T10:06:21;93798.31;;;19.05;34.03
11682;BME280;5897;42.640;23.310;2023-02-23T10:08:55;93798.13;;;19.14;33.92
11682;BME280;5897;42.640;23.310;2023-02-23T10:11:28;93797.13;;;19.37;32.96
11682;BME280;5897;42.640;23.310;2023-02-23T10:14:11;93793.03;;;19.53;33.07
11682;BME280;5897;42.640;23.310;2023-02-23T10:16:47;93785.25;;;19.46;32.93
11682;BME280;5897;42.640;23.310;2023-02-23T10:19:23;93790.38;;;19.64;33.07
11682;BME280;5897;42.640;23.310;2023-02-23T10:21:55;93785.91;;;19.66;32.76
11682;BME280;5897;42.640;23.310;2023-02-23T10:24:26;93784.34;;;19.91;32.47
11682;BME280;5897;42.640;23.310;2023-02-23T10:26:57;93777.78;;;20.14;32.07
11682;BME280;5897;42.640;23.310;2023-02-23T10:29:31;93772.28;;;20.14;31.80
11682;BME280;5897;42.640;23.310;2023-02-23T10:32:04;93772.66;;;20.01;31.60
11682;BME280;5897;42.640;23.310;2023-02-23T10:34:32;93772.84;;;19.87;32.27
11682;BME280;5897;42.640;23.310;2023-02-23T10:37:00;93766.28;;;20.10;31.69
11682;BME280;5897;42.640;23.310;2023-02-23T10:39:28;93758.09;;;20.15;31.53
11682;BME280;5897;42.640;23.310;2023-02-23T10:41:57;93752.00;;;19.64;32.69
11682;BME280;5897;42.640;23.310;2023-02-23T10:44:28;93753.06;;;20.08;32.34
11682;BME280;5897;42.640;23.310;2023-02-23T10:46:58;93754.19;;;20.38;31.17
11682;BME280;5897;42.640;23.310;2023-02-23T10:49:28;93747.09;;;20.74;31.18
11682;BME280;5897;42.640;23.310;2023-02-23T10:51:57;93744.19;;;21.05;30.41
11682;BME280;5897;42.640;23.310;2023-02-23T10:54:37;93746.44;;;21.34;29.96
11682;BME280;5897;42.640;23.310;2023-02-23T10:57:09;93736.47;;;21.36;29.41
11682;BME280;5897;42.640;23.310;2023-02-23T10:59:42;93729.69;;;21.15;29.83
11682;BME280;5897;42.640;23.310;2023-02-23T11:02:24;93733.50;;;21.67;29.32
11682;BME280;5897;42.640;23.310;2023-02-23T11:04:53;93731.88;;;22.10;28.66
11682;BME280;5897;42.640;23.310;2023-02-23T11:07:23;93730.28;;;22.42;28.14
11682;BME280;5897;42.640;23.310;2023-02-23T11:09:54;93732.13;;;22.80;27.50
11682;BME280;5897;42.640;23.310;2023-02-23T11:12:23;93726.84;;;22.88;26.86
11682;BME280;5897;42.640;23.310;2023-02-23T11:14:53;93721.69;;;23.08;26.60
11682;BME280;5897;42.640;23.310;2023-02-23T11:17:27;93731.81;;;22.95;26.90
11682;BME280;5897;42.640;23.310;2023-02-23T11:19:58;93728.81;;;22.93;27.09
11682;BME280;5897;42.640;23.310;2023-02-23T11:22:30;93718.59;;;23.23;25.90
11682;BME280;5897;42.640;23.310;2023-02-23T11:24:58;93716.91;;;23.20;26.72
11682;BME280;5897;42.640;23.310;2023-02-23T11:27:25;93705.91;;;23.09;25.67
11682;BME280;5897;42.640;23.310;2023-02-23T11:29:57;93709.47;;;23.39;26.25
11682;BME280;5897;42.640;23.310;2023-02-23T11:32:26;93702.28;;;23.60;25.14
11682;BME280;5897;42.640;23.310;2023-02-23T11:35:24;93706.66;;;23.74;25.04
11682;BME280;5897;42.640;23.310;2023-02-23T11:37:53;93699.75;;;23.91;25.39
11682;BME280;5897;42.640;23.310;2023-02-23T11:40:22;93701.41;;;24.24;24.33
11682;BME280;5897;42.640;23.310;2023-02-23T11:42:54;93696.25;;;24.76;23.12
11682;BME280;5897;42.640;23.310;2023-02-23T11:45:24;93694.59;;;24.67;23.38
11682;BME280;5897;42.640;23.310;2023-02-23T11:47:53;93692.50;;;24.55;23.69
11682;BME280;5897;42.640;23.310;2023-02-23T11:50:24;93697.19;;;24.41;24.37
11682;BME280;5897;42.640;23.310;2023-02-23T11:52:56;93689.94;;;24.57;24.11
11682;BME280;5897;42.640;23.310;2023-02-23T11:55:27;93688.75;;;24.34;24.29
11682;BME280;5897;42.640;23.310;2023-02-23T11:58:17;93690.25;;;24.11;24.68
11682;BME280;5897;42.640;23.310;2023-02-23T12:00:55;93688.97;;;23.34;25.89
11682;BME280;5897;42.640;23.310;2023-02-23T12:03:24;93691.81;;;23.53;25.38
11682;BME280;5897;42.640;23.310;2023-02-23T12:05:53;93682.78;;;23.52;25.24
11682;BME280;5897;42.640;23.310;2023-02-23T12:08:33;93683.38;;;23.69;25.18
11682;BME280;5897;42.640;23.310;2023-02-23T12:11:05;93687.53;;;23.81;25.56
11682;BME280;5897;42.640;23.310;2023-02-23T12:13:35;93690.00;;;23.85;24.97
11682;BME280;5897;42.640;23.310;2023-02-23T12:16:09;93681.66;;;23.66;24.77
11682;BME280;5897;42.640;23.310;2023-02-23T12:18:43;93688.50;;;23.60;24.86
11682;BME280;5897;42.640;23.310;2023-02-23T12:21:22;93681.97;;;23.33;25.56
11682;BME280;5897;42.640;23.310;2023-02-23T12:23:54;93679.03;;;23.20;25.59
11682;BME280;5897;42.640;23.310;2023-02-23T12:26:27;93682.38;;;23.08;25.60
11682;BME280;5897;42.640;23.310;2023-02-23T12:28:59;93681.25;;;22.87;26.04
11682;BME280;5897;42.640;23.310;2023-02-23T12:31:37;93674.13;;;22.67;26.38
11682;BME280;5897;42.640;23.310;2023-02-23T12:34:13;93676.53;;;22.30;26.75
11682;BME280;5897;42.640;23.310;2023-02-23T12:36:46;93670.09;;;22.17;26.79
11682;BME280;5897;42.640;23.310;2023-02-23T12:39:21;93663.41;;;21.96;26.97
11682;BME280;5897;42.640;23.310;2023-02-23T12:41:56;93677.47;;;21.87;27.11
11682;BME280;5897;42.640;23.310;2023-02-23T12:44:33;93678.00;;;21.52;28.10
11682;BME280;5897;42.640;23.310;2023-02-23T12:47:18;93677.47;;;21.48;28.06
11682;BME280;5897;42.640;23.310;2023-02-23T12:49:50;93674.75;;;21.43;27.65
11682;BME280;5897;42.640;23.310;2023-02-23T12:52:23;93664.53;;;21.27;28.40
11682;BME280;5897;42.640;23.310;2023-02-23T12:54:51;93674.75;;;21.26;28.19
11682;BME280;5897;42.640;23.310;2023-02-23T12:57:24;93670.75;;;21.22;29.31
11682;BME280;5897;42.640;23.310;2023-02-23T13:00:16;93664.53;;;21.21;28.77
11682;BME280;5897;42.640;23.310;2023-02-23T13:03:09;93655.78;;;21.23;28.69
11682;BME280;5897;42.640;23.310;2023-02-23T13:05:43;93657.78;;;21.06;29.56
11682;BME280;5897;42.640;23.310;2023-02-23T13:08:19;93659.28;;;20.96;30.39
11682;BME280;5897;42.640;23.310;2023-02-23T13:11:00;93663.22;;;20.78;29.98
11682;BME280;5897;42.640;23.310;2023-02-23T13:13:36;93667.69;;;20.65;30.72
11682;BME280;5897;42.640;23.310;2023-02-23T13:16:11;93665.19;;;20.56;30.35
11682;BME280;5897;42.640;23.310;2023-02-23T13:18:45;93665.19;;;20.67;30.17
11682;BME280;5897;42.640;23.310;2023-02-23T13:21:20;93660.97;;;20.60;30.86
11682;BME280;5897;42.640;23.310;2023-02-23T13:23:55;93665.69;;;20.54;31.08
11682;BME280;5897;42.640;23.310;2023-02-23T13:26:32;93661.22;;;20.57;30.75
11682;BME280;5897;42.640;23.310;2023-02-23T13:29:06;93655.94;;;20.48;31.17
11682;BME280;5897;42.640;23.310;2023-02-23T13:31:38;93657.13;;;20.19;31.53
11682;BME280;5897;42.640;23.310;2023-02-23T13:34:10;93656.84;;;20.12;31.64
11682;BME280;5897;42.640;23.310;2023-02-23T13:36:38;93650.09;;;20.13;31.56
11682;BME280;5897;42.640;23.310;2023-02-23T13:39:31;93654.81;;;20.12;31.65